Cloverdale, Indiana
Current Conditions -  °F | °C
As of 11:15 PM on Wednesday 26 Nov 2014 (Local Time) from K4I7 Reporting Station
Broken Clouds Broken Clouds  
Wind Chill: 21°   Ceiling: 6000
Heat Index: 28°   Visibility: 7mi
Dew Point: 25°   Wind: 7mph
Humidity: 86%   Direction: 10°N
Pressure: 30.1"   Gusts: NA
Location:  39.51°N, 86.79°W
Report Text: K4I7 270415Z AUTO 01006KT 7SM BKN060 BKN090 M02/M04 A3010 RMK AO2
Loading
Personal Weather Stations






























Interactive Weather Map New forecast layout! Learn more

10-Day Weather Forecast

Advertisements
Track Severe Weather on mobile